Time;durP1;ratioP1;P1;durP2;ratioP2;P2;SDS_P1;SDS_P2;PMS_P1;PMS_P2;Temp;Humidity;BMP_temperature;BMP_pressure;BME280_temperature;BME280_humidity;BME280_pressure;Samples;Min_cycle;Max_cycle;Signal;HPM_P1;HPM_P2
2023/08/02 00:00:03;;;;;;;1.45;1.15;;;;;;;16.73;62.99;98049.50;4995972;28;20049;-46
2023/08/02 00:02:30;;;;;;;8.52;0.88;;;;;;;16.72;63.19;98050.44;4995702;28;20049;-45
2023/08/02 00:04:57;;;;;;;8.90;1.00;;;;;;;16.66;63.00;98034.22;4996183;28;20058;-43
2023/08/02 00:07:24;;;;;;;3.05;1.25;;;;;;;16.66;63.54;98021.13;5002281;28;20112;-43
2023/08/02 00:09:50;;;;;;;5.22;0.95;;;;;;;16.60;63.66;98028.47;5007011;28;20041;-44
2023/08/02 00:12:17;;;;;;;2.85;0.93;;;;;;;16.62;63.46;98027.44;5003697;28;20050;-43
2023/08/02 00:14:43;;;;;;;2.35;0.70;;;;;;;16.57;64.19;98014.69;5008687;28;20053;-41
2023/08/02 00:17:10;;;;;;;2.83;0.85;;;;;;;16.58;63.77;98007.66;5005991;28;20060;-48
2023/08/02 00:19:37;;;;;;;2.95;0.70;;;;;;;16.59;63.68;98009.38;5007900;28;20049;-44
2023/08/02 00:22:03;;;;;;;4.63;1.00;;;;;;;16.61;63.48;98009.28;5005968;28;20049;-44
2023/08/02 00:24:30;;;;;;;3.80;1.02;;;;;;;16.60;64.13;97997.97;5003381;28;20045;-42
2023/08/02 00:26:57;;;;;;;3.33;0.85;;;;;;;16.58;64.67;97989.38;5004875;28;20414;-44
2023/08/02 00:29:23;;;;;;;3.65;1.10;;;;;;;16.57;64.30;97983.31;5012073;28;20057;-41
2023/08/02 00:31:50;;;;;;;3.97;1.02;;;;;;;16.56;64.75;97967.75;5005900;28;20046;-46
2023/08/02 00:34:16;;;;;;;3.22;1.10;;;;;;;16.56;64.36;97958.09;5012371;28;20049;-42
2023/08/02 00:36:43;;;;;;;2.65;0.90;;;;;;;16.55;65.16;97953.81;5011811;28;20050;-46
2023/08/02 00:39:10;;;;;;;3.72;1.50;;;;;;;16.52;65.41;97947.97;5010012;28;20057;-43
2023/08/02 00:41:37;;;;;;;2.58;1.63;;;;;;;16.46;65.39;97936.09;5011910;28;20053;-42
2023/08/02 00:44:03;;;;;;;2.63;0.80;;;;;;;16.44;66.55;97930.97;5011665;28;20045;-40
2023/08/02 00:46:30;;;;;;;6.47;1.02;;;;;;;16.42;66.48;97932.00;5015755;28;20050;-41
2023/08/02 00:48:57;;;;;;;3.20;1.30;;;;;;;16.40;66.74;97924.25;5010414;28;20073;-44
2023/08/02 00:51:24;;;;;;;5.30;1.30;;;;;;;16.39;66.45;97921.72;5007386;28;21258;-41
2023/08/02 00:53:51;;;;;;;5.53;1.40;;;;;;;16.37;66.34;97907.91;5009414;28;20046;-47
2023/08/02 00:56:18;;;;;;;2.95;0.93;;;;;;;16.37;67.10;97903.53;5009289;28;20597;-44
2023/08/02 00:58:44;;;;;;;2.60;1.17;;;;;;;16.35;66.69;97902.78;5009306;28;20061;-39
2023/08/02 01:01:11;;;;;;;5.85;1.42;;;;;;;16.35;67.02;97883.69;4994309;28;20050;-40
2023/08/02 01:03:41;;;;;;;3.55;1.10;;;;;;;16.35;67.36;97879.28;4995574;28;20042;-44
2023/08/02 01:08:49;;;;;;;4.53;1.50;;;;;;;16.31;67.66;97856.88;5069131;27;20912;-44
2023/08/02 01:11:24;;;;;;;4.63;1.52;;;;;;;16.28;68.46;97852.69;5041383;28;20049;-43
2023/08/02 01:13:55;;;;;;;7.22;1.25;;;;;;;16.21;68.98;97840.13;5042303;28;20049;-45
2023/08/02 01:16:23;;;;;;;3.65;1.20;;;;;;;16.21;68.03;97840.94;5043078;28;20049;-44
2023/08/02 01:19:00;;;;;;;3.67;1.48;;;;;;;16.16;69.47;97838.63;5041585;28;20045;-44
2023/08/02 01:21:27;;;;;;;3.92;0.90;;;;;;;16.10;69.24;97832.94;5039445;28;20527;-41
2023/08/02 01:23:54;;;;;;;4.40;1.33;;;;;;;16.09;69.85;97832.09;5050492;28;20052;-46
2023/08/02 01:26:22;;;;;;;3.10;2.03;;;;;;;16.07;69.85;97823.50;5063484;28;20048;-45
2023/08/02 01:28:52;;;;;;;4.22;1.10;;;;;;;16.08;70.58;97820.00;5059296;28;20114;-44
2023/08/02 01:31:21;;;;;;;4.40;1.08;;;;;;;16.08;69.96;97809.56;5064032;28;20561;-43
2023/08/02 01:33:52;;;;;;;2.75;1.55;;;;;;;16.06;69.99;97800.97;5060567;28;20048;-43
2023/08/02 01:36:18;;;;;;;7.57;2.08;;;;;;;16.04;70.50;97802.81;5056532;28;20053;-42
2023/08/02 01:38:45;;;;;;;4.22;1.38;;;;;;;16.04;70.45;97795.81;5055070;28;20052;-44
2023/08/02 01:41:12;;;;;;;5.45;1.85;;;;;;;16.03;70.70;97790.69;5059531;28;20051;-46
2023/08/02 01:43:38;;;;;;;6.90;1.38;;;;;;;16.03;70.95;97775.03;5060647;28;20072;-49
2023/08/02 01:46:05;;;;;;;5.38;1.55;;;;;;;15.98;71.91;97766.66;5059657;28;20404;-41
2023/08/02 01:48:32;;;;;;;4.45;1.48;;;;;;;16.01;71.50;97759.47;5057381;28;20140;-42
2023/08/02 01:50:58;;;;;;;4.68;1.25;;;;;;;15.94;71.99;97745.91;5059718;28;20796;-43
2023/08/02 01:53:25;;;;;;;12.15;2.00;;;;;;;15.92;72.29;97737.38;5053684;28;20053;-40
2023/08/02 01:55:52;;;;;;;6.13;3.33;;;;;;;15.93;72.43;97728.59;5062056;28;20622;-46
2023/08/02 01:58:18;;;;;;;5.20;1.52;;;;;;;15.92;71.94;97720.84;5059169;28;20041;-41
2023/08/02 02:00:46;;;;;;;3.92;1.33;;;;;;;15.90;72.83;97713.13;5058194;28;20049;-48
2023/08/02 02:03:13;;;;;;;4.78;1.10;;;;;;;15.81;73.47;97708.47;5060185;28;20106;-42
2023/08/02 02:05:39;;;;;;;5.45;2.10;;;;;;;15.80;74.09;97697.19;5057275;28;20131;-45
2023/08/02 02:08:06;;;;;;;6.88;2.03;;;;;;;15.78;74.52;97679.94;5061492;28;20052;-45
2023/08/02 02:10:33;;;;;;;4.95;1.10;;;;;;;15.80;73.90;97670.25;5058008;28;20055;-48
2023/08/02 02:13:00;;;;;;;9.00;1.67;;;;;;;15.79;73.97;97658.13;5058492;28;20044;-42
2023/08/02 02:15:26;;;;;;;6.22;2.30;;;;;;;15.75;74.16;97654.88;5060332;28;20045;-45
2023/08/02 02:17:53;;;;;;;6.72;2.20;;;;;;;15.76;74.25;97653.09;5059629;28;20144;-47
2023/08/02 02:20:20;;;;;;;3.78;1.90;;;;;;;15.71;75.19;97637.75;5049029;28;20052;-45
2023/08/02 02:22:46;;;;;;;5.57;1.83;;;;;;;15.70;75.16;97627.41;5043080;28;20048;-47
2023/08/02 02:25:13;;;;;;;9.48;1.63;;;;;;;15.71;75.12;97623.84;5037030;28;20045;-46
2023/08/02 02:27:39;;;;;;;7.30;1.52;;;;;;;15.70;75.72;97606.53;5042200;28;20603;-47
2023/08/02 02:30:07;;;;;;;4.82;2.13;;;;;;;15.71;75.95;97602.97;5045952;28;20052;-47
2023/08/02 02:32:33;;;;;;;7.40;2.42;;;;;;;15.68;76.20;97586.56;5044871;28;20049;-40
2023/08/02 02:35:00;;;;;;;6.18;2.08;;;;;;;15.62;76.78;97573.94;5040285;28;20520;-46
2023/08/02 02:37:27;;;;;;;5.90;2.45;;;;;;;15.66;76.54;97575.41;5022467;28;20453;-45
2023/08/02 02:39:53;;;;;;;5.50;1.85;;;;;;;15.60;76.35;97573.19;5023592;28;20042;-42
2023/08/02 02:42:20;;;;;;;5.97;1.80;;;;;;;15.65;76.20;97562.47;5019497;28;20064;-49
2023/08/02 02:44:46;;;;;;;5.45;1.70;;;;;;;15.69;75.63;97558.72;5026822;28;20067;-47
2023/08/02 02:47:13;;;;;;;4.40;1.70;;;;;;;15.68;75.56;97557.06;5024548;28;20034;-40
2023/08/02 02:49:40;;;;;;;7.45;2.25;;;;;;;15.71;75.59;97550.78;5047263;28;20087;-51
2023/08/02 02:52:07;;;;;;;5.68;2.00;;;;;;;15.67;75.97;97545.78;5026886;28;20053;-45
2023/08/02 02:54:33;;;;;;;10.23;3.08;;;;;;;15.75;75.95;97536.63;5026345;28;20661;-41
2023/08/02 02:57:00;;;;;;;7.63;2.25;;;;;;;15.71;76.19;97519.47;5023480;28;20124;-43
2023/08/02 02:59:27;;;;;;;10.35;2.38;;;;;;;15.73;76.22;97512.38;5014868;28;20060;-47
2023/08/02 03:01:54;;;;;;;4.57;2.00;;;;;;;15.74;76.75;97498.41;5012273;28;20083;-42
2023/08/02 03:04:20;;;;;;;7.05;1.88;;;;;;;15.72;76.56;97492.44;5015171;28;20069;-42
2023/08/02 03:06:47;;;;;;;6.93;1.88;;;;;;;15.72;76.91;97487.22;5017277;28;20048;-44
2023/08/02 03:09:13;;;;;;;6.40;2.35;;;;;;;15.67;77.23;97469.25;5016568;28;20038;-44
2023/08/02 03:11:40;;;;;;;8.10;2.65;;;;;;;15.68;76.68;97469.16;5014350;28;20053;-39
2023/08/02 03:14:07;;;;;;;4.93;1.83;;;;;;;15.71;76.43;97462.94;5017227;28;20068;-44
2023/08/02 03:16:33;;;;;;;6.57;2.28;;;;;;;15.72;76.78;97461.13;5019816;28;20053;-43
2023/08/02 03:19:00;;;;;;;3.55;1.80;;;;;;;15.72;76.82;97464.59;5020702;28;20136;-46
2023/08/02 03:21:27;;;;;;;4.00;1.02;;;;;;;15.74;76.78;97456.66;5017105;28;20057;-41
2023/08/02 03:23:53;;;;;;;4.70;1.50;;;;;;;15.75;76.74;97451.34;5009859;28;20046;-43
2023/08/02 03:26:20;;;;;;;3.63;1.60;;;;;;;15.74;76.84;97438.41;5017891;28;20871;-43
2023/08/02 03:28:46;;;;;;;3.00;1.65;;;;;;;15.78;76.64;97445.09;5027031;28;20061;-47
2023/08/02 03:31:13;;;;;;;5.28;1.33;;;;;;;15.75;77.14;97432.22;5015515;28;20049;-41
2023/08/02 03:33:41;;;;;;;2.90;1.00;;;;;;;15.73;77.01;97421.91;5020072;28;20064;-46
2023/08/02 03:36:08;;;;;;;2.38;0.93;;;;;;;15.73;76.70;97413.22;5022884;28;20076;-45
2023/08/02 03:38:34;;;;;;;3.90;1.35;;;;;;;15.78;77.00;97416.38;5020346;28;20057;-47
2023/08/02 03:41:01;;;;;;;2.40;1.30;;;;;;;15.77;77.13;97404.28;5018941;28;20060;-44
2023/08/02 03:43:28;;;;;;;1.75;0.80;;;;;;;15.75;77.22;97404.38;5023388;28;20076;-45
2023/08/02 03:45:54;;;;;;;1.10;0.60;;;;;;;15.74;77.33;97399.25;5020707;28;20446;-43
2023/08/02 03:48:21;;;;;;;2.45;0.43;;;;;;;15.76;77.17;97386.94;5019728;28;20511;-44
2023/08/02 03:50:48;;;;;;;1.58;0.80;;;;;;;15.74;77.75;97378.38;5015867;28;20046;-42
2023/08/02 03:53:14;;;;;;;1.30;0.63;;;;;;;15.70;77.90;97382.94;5008670;28;20049;-48
2023/08/02 03:55:41;;;;;;;1.95;0.73;;;;;;;15.71;78.07;97366.38;5016634;28;20607;-39
2023/08/02 03:58:08;;;;;;;1.02;0.55;;;;;;;15.71;78.07;97362.94;5016398;28;20038;-46
2023/08/02 04:00:34;;;;;;;1.05;0.40;;;;;;;15.72;77.88;97360.22;5015157;28;20057;-45
2023/08/02 04:03:01;;;;;;;0.70;0.50;;;;;;;15.74;78.15;97357.50;5017217;28;20046;-45
2023/08/02 04:05:27;;;;;;;1.27;0.45;;;;;;;15.70;78.29;97351.63;5014124;28;20096;-44
2023/08/02 04:07:54;;;;;;;1.20;0.63;;;;;;;15.72;77.75;97348.94;5019047;28;20049;-47
2023/08/02 04:10:21;;;;;;;0.75;0.57;;;;;;;15.72;78.31;97341.09;5013794;28;20073;-46
2023/08/02 04:12:51;;;;;;;1.17;0.40;;;;;;;15.74;77.94;97326.19;5014154;28;20053;-41
2023/08/02 04:15:18;;;;;;;1.75;0.50;;;;;;;15.73;78.57;97329.72;5023964;28;20069;-43
2023/08/02 04:17:44;;;;;;;1.20;0.52;;;;;;;15.74;77.87;97327.00;5020558;28;20076;-45
2023/08/02 04:20:11;;;;;;;1.48;0.40;;;;;;;15.73;78.61;97321.88;5029920;28;20391;-42
2023/08/02 04:22:38;;;;;;;0.95;0.50;;;;;;;15.72;78.56;97323.69;5026736;28;20056;-42
2023/08/02 04:25:05;;;;;;;1.08;0.50;;;;;;;15.76;78.48;97324.28;5027642;28;20103;-43
2023/08/02 04:27:31;;;;;;;2.78;0.40;;;;;;;15.79;78.01;97324.09;5025592;28;20057;-42
2023/08/02 04:29:58;;;;;;;0.70;0.32;;;;;;;15.79;78.03;97318.88;5021259;28;20056;-40
2023/08/02 04:32:25;;;;;;;0.50;0.25;;;;;;;15.81;78.07;97314.41;5021253;28;20060;-41
2023/08/02 04:34:52;;;;;;;0.70;0.52;;;;;;;15.80;78.40;97320.53;5023663;28;20045;-42
2023/08/02 04:37:19;;;;;;;2.00;0.80;;;;;;;15.84;77.76;97311.56;5020852;28;20132;-42
2023/08/02 04:39:45;;;;;;;1.02;0.30;;;;;;;15.86;78.49;97308.84;5023524;28;20049;-45
2023/08/02 04:42:14;;;;;;;0.70;0.50;;;;;;;15.86;77.72;97303.63;5018154;28;20057;-44
2023/08/02 04:44:41;;;;;;;1.25;0.65;;;;;;;15.88;77.92;97310.41;5019474;28;20056;-47
2023/08/02 04:47:08;;;;;;;1.00;0.43;;;;;;;15.93;77.78;97310.09;5023315;28;20056;-45
2023/08/02 04:49:35;;;;;;;1.10;0.60;;;;;;;15.99;77.08;97308.88;5022570;28;20049;-47
2023/08/02 04:52:02;;;;;;;1.50;0.50;;;;;;;16.04;77.09;97293.72;5018502;28;20045;-42
2023/08/02 04:54:29;;;;;;;1.45;0.65;;;;;;;16.10;77.64;97295.06;5017602;28;20054;-47
2023/08/02 04:56:56;;;;;;;0.65;0.52;;;;;;;16.12;76.85;97283.59;5019197;28;21199;-42
2023/08/02 04:59:23;;;;;;;0.77;0.65;;;;;;;16.15;77.13;97278.13;5018592;28;20057;-43
2023/08/02 05:01:50;;;;;;;1.65;1.02;;;;;;;16.14;77.36;97276.47;5024860;28;20053;-42
2023/08/02 05:04:16;;;;;;;1.08;0.98;;;;;;;16.15;76.62;97267.69;5021234;28;20102;-45
2023/08/02 05:06:43;;;;;;;0.65;0.45;;;;;;;16.14;77.72;97266.03;5020864;28;20054;-50
2023/08/02 05:09:11;;;;;;;2.03;0.50;;;;;;;16.12;77.36;97252.28;5024251;28;20041;-44
2023/08/02 05:11:40;;;;;;;0.90;0.45;;;;;;;16.13;77.40;97259.16;5019527;28;20303;-48
2023/08/02 05:14:07;;;;;;;0.93;0.73;;;;;;;16.12;76.93;97247.03;5020777;28;20136;-44
2023/08/02 05:16:35;;;;;;;1.00;0.70;;;;;;;16.15;77.29;97257.25;5040091;28;20540;-41
2023/08/02 05:19:03;;;;;;;1.13;0.40;;;;;;;16.19;76.57;97243.03;5031404;28;20102;-41
2023/08/02 05:21:29;;;;;;;4.28;0.30;;;;;;;16.21;77.19;97229.88;5029071;28;20045;-47
2023/08/02 05:23:56;;;;;;;0.60;0.35;;;;;;;16.24;77.06;97234.06;5011244;28;20780;-49
2023/08/02 05:26:23;;;;;;;1.92;0.45;;;;;;;16.26;76.83;97229.56;5007007;28;20054;-45
2023/08/02 05:28:50;;;;;;;2.65;0.30;;;;;;;16.25;77.02;97222.66;5017427;28;20056;-46
2023/08/02 05:31:17;;;;;;;0.60;0.47;;;;;;;16.27;76.58;97218.16;5023647;28;20412;-41
2023/08/02 05:33:46;;;;;;;0.80;0.70;;;;;;;16.29;77.15;97218.88;5019063;28;20041;-43
2023/08/02 05:36:14;;;;;;;0.80;0.60;;;;;;;16.32;77.18;97216.06;5022586;28;20076;-44
2023/08/02 05:38:41;;;;;;;0.57;0.32;;;;;;;16.34;77.59;97206.31;5016302;28;20042;-41
2023/08/02 05:41:08;;;;;;;0.80;0.30;;;;;;;16.37;76.64;97213.09;5017657;28;20046;-50
2023/08/02 05:43:36;;;;;;;1.50;0.70;;;;;;;16.40;76.34;97202.44;5016714;28;20088;-45
2023/08/02 05:46:02;;;;;;;1.65;0.60;;;;;;;16.42;76.57;97196.16;5020999;28;20043;-42
2023/08/02 05:48:29;;;;;;;3.33;0.50;;;;;;;16.44;76.85;97189.03;5016650;28;20042;-48
2023/08/02 05:50:56;;;;;;;1.13;0.43;;;;;;;16.45;76.65;97184.66;5012860;28;20052;-51
2023/08/02 05:53:22;;;;;;;1.95;0.28;;;;;;;16.48;77.27;97183.59;5011163;28;20045;-45
2023/08/02 05:55:49;;;;;;;0.60;0.40;;;;;;;16.51;77.17;97178.16;5048548;28;20496;-48
2023/08/02 05:58:16;;;;;;;0.60;0.60;;;;;;;16.53;77.04;97178.88;5018408;28;20052;-48
2023/08/02 06:00:43;;;;;;;1.13;0.52;;;;;;;16.55;77.25;97175.19;5020823;28;20049;-41
2023/08/02 06:03:09;;;;;;;3.40;0.82;;;;;;;16.60;77.36;97176.63;5017249;28;20045;-42
2023/08/02 06:05:36;;;;;;;1.73;0.60;;;;;;;16.62;76.59;97170.34;5022455;28;20531;-47
2023/08/02 06:08:03;;;;;;;0.80;0.73;;;;;;;16.66;77.54;97166.59;5022179;28;21164;-47
2023/08/02 06:10:30;;;;;;;0.90;0.60;;;;;;;16.72;77.43;97164.44;5020555;28;20056;-44
2023/08/02 06:12:57;;;;;;;1.58;0.80;;;;;;;16.75;77.36;97153.78;5024159;28;20049;-48
2023/08/02 06:15:24;;;;;;;4.53;1.23;;;;;;;16.80;77.58;97156.88;5026491;28;20045;-42
2023/08/02 06:17:51;;;;;;;4.35;2.65;;;;;;;16.85;77.50;97154.72;5017390;28;20067;-42
2023/08/02 06:20:18;;;;;;;3.75;3.25;;;;;;;16.87;77.55;97152.84;5022570;28;20674;-44
2023/08/02 06:22:44;;;;;;;6.63;4.22;;;;;;;16.91;77.02;97146.44;5023047;28;20054;-46
2023/08/02 06:25:11;;;;;;;6.40;3.78;;;;;;;16.95;77.02;97142.63;5023649;28;20428;-42
2023/08/02 06:27:37;;;;;;;4.07;2.15;;;;;;;17.01;77.03;97140.50;5025236;28;20053;-43
2023/08/02 06:30:05;;;;;;;3.35;1.00;;;;;;;17.07;78.06;97140.06;5023046;28;20085;-41
2023/08/02 06:32:31;;;;;;;1.23;0.80;;;;;;;17.10;77.94;97142.47;5026012;28;20152;-42
2023/08/02 06:34:58;;;;;;;1.77;0.90;;;;;;;17.17;77.33;97138.44;5026758;28;20056;-47
2023/08/02 06:37:25;;;;;;;0.82;0.55;;;;;;;17.24;77.43;97141.41;5022897;28;20060;-47
2023/08/02 06:39:51;;;;;;;0.70;0.30;;;;;;;17.27;78.19;97133.31;5025485;28;20052;-42
2023/08/02 06:42:18;;;;;;;1.35;0.68;;;;;;;17.35;77.71;97145.78;5023223;28;20049;-40
2023/08/02 06:44:44;;;;;;;1.45;0.32;;;;;;;17.38;77.75;97140.31;5025988;28;20133;-46
2023/08/02 06:47:11;;;;;;;2.38;0.50;;;;;;;17.41;78.06;97149.72;5024762;28;20387;-43
2023/08/02 06:49:38;;;;;;;1.83;0.52;;;;;;;17.44;78.16;97145.09;5023715;28;20225;-43
2023/08/02 06:52:05;;;;;;;1.20;0.47;;;;;;;17.50;77.79;97153.41;5024547;28;20111;-46
2023/08/02 06:54:32;;;;;;;0.65;0.32;;;;;;;17.55;77.98;97143.41;5023860;28;20045;-46
2023/08/02 06:56:58;;;;;;;0.70;0.40;;;;;;;17.60;78.03;97143.91;5024668;28;20132;-46
2023/08/02 06:59:25;;;;;;;3.17;1.02;;;;;;;17.64;77.55;97140.09;5018779;28;20506;-51
2023/08/02 07:01:52;;;;;;;0.95;0.60;;;;;;;17.62;78.09;97144.59;5021789;28;20057;-46
2023/08/02 07:04:19;;;;;;;0.90;0.40;;;;;;;17.63;77.34;97148.06;5020177;28;20045;-47
2023/08/02 07:06:46;;;;;;;1.65;0.40;;;;;;;17.61;77.60;97145.56;5026405;28;20049;-43
2023/08/02 07:09:14;;;;;;;1.23;0.50;;;;;;;17.60;77.22;97143.91;5019512;28;20175;-48
2023/08/02 07:11:40;;;;;;;1.40;0.70;;;;;;;17.57;77.24;97144.13;5016375;28;20069;-44
2023/08/02 07:14:07;;;;;;;1.10;0.65;;;;;;;17.56;77.53;97142.47;5013228;28;20045;-43
2023/08/02 07:16:34;;;;;;;1.08;0.60;;;;;;;17.56;77.92;97147.72;5019650;28;20068;-46
2023/08/02 07:19:02;;;;;;;1.25;0.55;;;;;;;17.56;77.97;97142.47;5017248;28;20116;-43
2023/08/02 07:21:30;;;;;;;1.10;0.90;;;;;;;17.57;77.41;97144.94;5021213;28;20064;-46
2023/08/02 07:23:56;;;;;;;1.63;0.75;;;;;;;17.60;77.72;97141.28;5017137;28;20582;-44
2023/08/02 07:26:23;;;;;;;1.85;0.85;;;;;;;17.63;77.72;97143.63;5023545;28;20049;-45
2023/08/02 07:28:50;;;;;;;1.23;0.75;;;;;;;17.65;77.41;97139.13;5019852;28;20507;-46
2023/08/02 07:31:16;;;;;;;2.03;0.88;;;;;;;17.69;77.74;97142.31;5020000;28;20077;-46
2023/08/02 07:33:45;;;;;;;3.75;0.90;;;;;;;17.71;77.36;97141.25;5023354;28;20473;-47
2023/08/02 07:36:15;;;;;;;1.00;0.70;;;;;;;17.75;77.22;97141.00;5022558;28;20583;-48
2023/08/02 07:38:42;;;;;;;1.90;0.65;;;;;;;17.77;77.02;97149.56;5019799;28;20049;-44
2023/08/02 07:41:09;;;;;;;0.80;0.40;;;;;;;17.78;77.48;97140.75;5025700;28;20045;-43
2023/08/02 07:43:38;;;;;;;1.27;0.77;;;;;;;17.79;77.28;97137.19;5017626;28;20868;-48
2023/08/02 07:46:14;;;;;;;3.53;1.27;;;;;;;17.84;77.22;97137.66;5049040;28;20055;-46
2023/08/02 07:48:41;;;;;;;4.00;2.05;;;;;;;17.89;77.31;97137.28;5018094;28;20046;-47
2023/08/02 07:51:07;;;;;;;5.25;2.30;;;;;;;17.98;76.91;97142.66;5023019;28;20045;-44
2023/08/02 07:53:34;;;;;;;7.55;3.05;;;;;;;18.16;77.57;97134.28;5021997;28;20699;-44
2023/08/02 07:56:03;;;;;;;7.78;2.88;;;;;;;18.44;77.69;97134.63;5016473;28;20049;-43
2023/08/02 07:58:30;;;;;;;7.45;2.90;;;;;;;18.65;77.18;97133.00;5022585;28;20040;-42
2023/08/02 08:01:04;;;;;;;17.52;5.07;;;;;;;18.96;77.09;97133.91;5015240;28;20046;-51
2023/08/02 08:03:31;;;;;;;3.47;1.55;;;;;;;19.29;76.80;97127.72;5019897;28;20053;-48
2023/08/02 08:05:57;;;;;;;6.15;2.00;;;;;;;19.53;76.14;97138.72;5019152;28;20045;-45
2023/08/02 08:08:24;;;;;;;7.95;2.53;;;;;;;19.78;76.35;97136.59;5021827;28;20114;-45
2023/08/02 08:10:51;;;;;;;3.58;1.58;;;;;;;20.18;75.66;97141.94;5021681;28;20054;-42
2023/08/02 08:13:18;;;;;;;1.20;0.63;;;;;;;20.32;75.09;97137.22;5020187;28;20603;-41
2023/08/02 08:15:46;;;;;;;5.13;2.40;;;;;;;20.33;74.37;97133.66;5024450;28;20049;-46
2023/08/02 08:18:12;;;;;;;6.72;2.30;;;;;;;20.26;74.39;97134.19;5023829;28;20053;-42
2023/08/02 08:20:39;;;;;;;6.25;2.03;;;;;;;20.20;74.65;97142.66;5023779;28;20049;-50
2023/08/02 08:23:05;;;;;;;13.40;4.40;;;;;;;20.21;74.37;97141.69;5015080;28;20077;-45
2023/08/02 08:25:32;;;;;;;16.30;5.10;;;;;;;20.36;75.02;97143.91;5026101;28;20401;-46
2023/08/02 08:27:59;;;;;;;10.63;4.05;;;;;;;20.44;74.46;97140.56;5024708;28;20048;-44
2023/08/02 08:30:25;;;;;;;7.38;2.40;;;;;;;20.45;73.21;97140.44;5019079;28;20056;-50
2023/08/02 08:32:53;;;;;;;9.65;3.05;;;;;;;20.41;73.76;97146.94;5016004;28;20046;-46
2023/08/02 08:35:20;;;;;;;18.02;6.00;;;;;;;20.44;73.59;97146.66;5009037;28;20080;-43
2023/08/02 08:37:49;;;;;;;5.75;1.98;;;;;;;20.44;72.71;97151.94;5015455;28;20053;-44
2023/08/02 08:40:17;;;;;;;7.15;2.55;;;;;;;20.32;72.33;97153.00;5013381;28;20483;-45
2023/08/02 08:42:50;;;;;;;4.90;1.58;;;;;;;20.12;71.99;97148.56;5010102;28;20050;-44
2023/08/02 08:45:19;;;;;;;10.82;3.30;;;;;;;19.98;71.98;97152.41;5040934;28;20052;-48
2023/08/02 08:47:47;;;;;;;15.40;4.95;;;;;;;19.81;71.64;97146.00;5015560;28;20100;-42
2023/08/02 08:50:15;;;;;;;6.70;1.55;;;;;;;19.67;71.76;97155.09;5016889;28;20057;-49
2023/08/02 08:52:45;;;;;;;5.07;1.83;;;;;;;19.53;71.93;97148.41;5043032;28;20057;-50
2023/08/02 08:55:14;;;;;;;3.38;1.85;;;;;;;19.47;71.82;97141.91;5013287;28;20519;-45
2023/08/02 08:57:45;;;;;;;2.70;1.00;;;;;;;19.45;72.30;97140.38;5013147;28;20137;-42
2023/08/02 09:00:13;;;;;;;2.35;0.55;;;;;;;19.45;72.56;97141.19;5011394;28;20068;-50
2023/08/02 09:02:42;;;;;;;2.03;0.52;;;;;;;19.47;72.46;97143.69;5009990;28;20056;-45
2023/08/02 09:05:10;;;;;;;2.45;0.57;;;;;;;19.55;72.37;97141.22;5013338;28;20049;-45
2023/08/02 09:07:36;;;;;;;1.15;0.40;;;;;;;19.61;72.28;97145.09;5028097;28;20528;-46
2023/08/02 09:10:03;;;;;;;4.10;1.23;;;;;;;19.86;73.07;97137.72;5013598;28;20045;-48
2023/08/02 09:12:42;;;;;;;2.38;0.70;;;;;;;20.29;73.24;97144.44;5009799;28;20061;-47
2023/08/02 09:15:08;;;;;;;4.38;0.52;;;;;;;20.76;72.84;97142.91;5024371;28;20045;-50
2023/08/02 09:17:53;;;;;;;0.95;0.32;;;;;;;21.25;72.22;97144.63;5009780;28;20127;-47
2023/08/02 09:20:23;;;;;;;4.15;0.85;;;;;;;21.56;71.22;97140.88;5041748;28;20046;-45
2023/08/02 09:22:50;;;;;;;0.95;0.52;;;;;;;21.62;69.39;97142.94;5046857;28;20042;-46
2023/08/02 09:27:59;;;;;;;2.88;0.52;;;;;;;21.79;69.18;97141.34;5009250;27;20419;-45
2023/08/02 09:30:32;;;;;;;1.15;0.45;;;;;;;22.10;69.18;97140.19;5010998;28;20050;-42
2023/08/02 09:33:08;;;;;;;1.50;0.65;;;;;;;22.37;68.18;97142.91;5014241;28;20114;-45
2023/08/02 09:35:51;;;;;;;1.60;0.65;;;;;;;22.62;68.28;97151.06;5019018;28;20049;-44
2023/08/02 09:38:19;;;;;;;2.38;1.63;;;;;;;22.83;67.32;97159.47;5019843;28;20434;-44
2023/08/02 09:40:47;;;;;;;1.50;0.50;;;;;;;23.02;67.53;97141.78;5008576;28;20437;-48
2023/08/02 09:43:34;;;;;;;1.83;1.00;;;;;;;23.28;67.09;97135.66;5016937;28;20088;-47
2023/08/02 09:46:01;;;;;;;1.60;0.75;;;;;;;23.52;67.19;97131.50;5013228;28;20045;-42
2023/08/02 09:48:35;;;;;;;1.45;0.93;;;;;;;23.79;66.75;97137.56;5016801;28;20128;-43
2023/08/02 09:51:03;;;;;;;3.35;1.65;;;;;;;24.08;66.37;97131.00;5012408;28;20836;-45
2023/08/02 09:53:31;;;;;;;1.35;0.73;;;;;;;24.17;64.21;97138.97;5012569;28;20052;-47
2023/08/02 09:56:00;;;;;;;6.07;0.60;;;;;;;24.06;64.29;97130.34;5016486;28;20049;-45
2023/08/02 09:58:29;;;;;;;3.63;0.93;;;;;;;24.10;63.60;97139.63;5047198;28;20736;-49
2023/08/02 10:00:57;;;;;;;6.28;1.00;;;;;;;24.09;62.84;97137.97;5015103;28;20053;-45
2023/08/02 10:03:26;;;;;;;2.03;0.80;;;;;;;24.01;62.71;97130.00;5017553;28;20616;-45
2023/08/02 10:05:56;;;;;;;1.73;0.73;;;;;;;23.94;62.15;97131.66;5014197;28;20108;-45
2023/08/02 10:08:25;;;;;;;1.27;1.02;;;;;;;23.99;62.42;97132.00;5018720;28;20049;-51
2023/08/02 10:10:52;;;;;;;;;;;;;;;24.00;62.48;97123.91;5017199;28;20046;-48
2023/08/02 10:13:26;;;;;;;1.98;0.90;;;;;;;24.08;62.40;97130.19;5018504;28;19944;-48
2023/08/02 10:15:54;;;;;;;1.80;1.52;;;;;;;24.20;61.83;97128.91;5018150;28;20421;-44
2023/08/02 10:18:22;;;;;;;1.65;0.45;;;;;;;24.22;61.25;97129.56;5002353;28;20049;-47
2023/08/02 10:20:49;;;;;;;1.60;0.82;;;;;;;24.19;61.11;97137.00;5015088;28;20084;-44
2023/08/02 10:23:16;;;;;;;1.70;0.60;;;;;;;24.13;60.78;97134.03;5017233;28;20137;-48
2023/08/02 10:25:44;;;;;;;3.85;0.65;;;;;;;24.06;60.71;97140.94;5018671;28;20057;-45
2023/08/02 10:28:11;;;;;;;1.35;0.50;;;;;;;23.99;60.65;97142.56;5017116;28;20054;-47
2023/08/02 10:30:39;;;;;;;3.28;1.38;;;;;;;23.91;60.41;97151.28;5010642;28;20061;-47
2023/08/02 10:33:14;;;;;;;6.47;2.67;;;;;;;23.82;60.01;97147.81;5018519;28;20076;-45
2023/08/02 10:36:02;;;;;;;2.78;0.60;;;;;;;23.59;58.55;97156.31;5011786;28;20724;-47
2023/08/02 10:38:47;;;;;;;3.88;2.05;;;;;;;23.31;59.63;97150.38;5007164;28;20624;-46
2023/08/02 10:41:17;;;;;;;3.17;1.20;;;;;;;23.11;59.90;97151.41;4999645;28;20730;-44
2023/08/02 10:46:29;;;;;;;4.03;1.80;;;;;;;22.96;60.69;97147.66;5061235;27;20399;-44
2023/08/02 10:51:53;;;;;;;2.83;0.50;;;;;;;22.81;60.57;97157.97;5025924;28;20415;-45
2023/08/02 10:54:22;;;;;;;3.55;1.63;;;;;;;22.78;60.69;97160.91;5013012;28;20046;-45
2023/08/02 11:02:07;;;;;;;3.10;1.70;;;;;;;22.63;60.13;97163.28;5054003;28;20381;-48
2023/08/02 11:04:35;;;;;;;4.97;1.40;;;;;;;22.55;60.09;97164.81;5020829;28;20454;-45
2023/08/02 11:07:20;;;;;;;4.72;2.45;;;;;;;22.45;60.67;97161.44;5020638;28;20139;-43
2023/08/02 11:09:53;;;;;;;4.85;2.50;;;;;;;22.44;60.59;97162.41;5020285;28;20053;-49
2023/08/02 11:12:21;;;;;;;4.00;2.17;;;;;;;22.38;60.51;97157.72;5018671;28;20077;-45
2023/08/02 11:14:50;;;;;;;3.28;2.97;;;;;;;22.33;60.31;97166.94;5019923;28;20132;-41
2023/08/02 11:17:19;;;;;;;3.60;2.15;;;;;;;22.15;60.39;97160.84;5021359;28;20060;-44
2023/08/02 11:19:59;;;;;;;4.78;2.35;;;;;;;22.00;59.82;97161.34;5019114;28;20058;-44
2023/08/02 11:22:35;;;;;;;2.15;1.80;;;;;;;21.88;59.95;97165.16;5040052;28;20055;-43
2023/08/02 11:25:03;;;;;;;3.05;2.00;;;;;;;21.80;60.58;97157.97;5022247;28;20417;-44
2023/08/02 11:27:29;;;;;;;6.50;2.65;;;;;;;21.78;61.54;97150.22;5014815;28;20050;-44
2023/08/02 11:30:01;;;;;;;;;;;;;;;21.69;61.43;97140.56;5021284;28;20053;-44
2023/08/02 11:32:28;;;;;;;4.00;2.50;;;;;;;21.81;61.79;97154.38;5026273;28;20637;-42
2023/08/02 11:34:55;;;;;;;4.13;2.42;;;;;;;21.78;61.06;97155.50;5034491;28;20049;-44
2023/08/02 11:37:22;;;;;;;5.03;2.13;;;;;;;21.73;61.20;97155.09;5016664;28;20061;-47
2023/08/02 11:39:51;;;;;;;3.92;3.03;;;;;;;21.69;61.34;97151.09;5016625;28;20052;-48
2023/08/02 11:42:54;;;;;;;4.25;2.80;;;;;;;21.60;61.54;97151.94;5015641;28;20525;-46
2023/08/02 11:45:31;;;;;;;3.97;2.22;;;;;;;21.61;61.40;97146.53;5016857;28;20052;-51
2023/08/02 11:47:58;;;;;;;5.35;2.42;;;;;;;21.60;61.12;97146.69;5010133;28;20116;-43
2023/08/02 11:50:36;;;;;;;3.05;1.88;;;;;;;21.51;60.81;97151.84;5013589;28;20129;-49
2023/08/02 11:53:05;;;;;;;3.17;2.88;;;;;;;21.52;61.36;97156.13;5020472;28;20269;-49